Latest Weather Observations for Mount Hotham Airport

IDV60801

Issued at 4:35 pm EST Wednesday 20 August 2014 (issued every 30 minutes, with the page automatically refreshed every 10 minutes)

About weather observations | Map of weather stations | Latest weather observations for VIC | Other Formats
Station Details ID: 083055 Name: MOUNT HOTHAM AIRPORT Lat: -37.05 Lon: 147.33 Height: 1295.4 m
Data from the previous 72 hours. | See also: Recent months at Mount Hotham Airport
Date/Time
EST
Temp
°C
App
Temp
°C
Dew
Point
Rel
Hum
%
Delta-T
°C
Wind Press
QNH
hPa
Press
MSL
hPa
Rain
since 9 am
mm
Dir
 
Spd
km/h
Gust
km/h
Spd
kts
Gust
kts
20/04:30pm 6.7 2.9 2.0 72 2.1 ESE 11 13 6 7 1024.2 - 0.0
20/04:00pm 7.7 3.5 1.8 66 2.6 ESE 13 17 7 9 1024.1 - 0.0
20/03:30pm 8.7 4.5 1.8 62 3.1 ESE 13 19 7 10 1023.9 - 0.0
20/03:00pm 9.0 4.5 1.9 61 3.2 ESE 15 20 8 11 1023.7 1027.2 0.0
20/02:30pm 10.0 6.1 1.4 55 3.9 E 11 19 6 10 1023.6 - 0.0
20/02:00pm 9.5 5.4 0.1 52 4.1 ESE 11 17 6 9 1023.5 - 0.0
20/01:30pm 9.2 5.5 0.1 53 3.9 SE 9 15 5 8 1023.5 - 0.0
20/01:00pm 9.4 6.2 0.6 54 3.9 ESE 7 13 4 7 1023.6 - 0.0
20/12:30pm 8.8 5.1 0.0 54 3.8 ESE 9 15 5 8 1023.8 - 0.0
20/12:00pm 8.7 5.4 -0.1 54 3.8 ESE 7 11 4 6 1024.1 1027.6 0.0
20/11:30am 7.9 4.4 1.1 62 3.0 SE 9 13 5 7 1024.4 - 0.0
20/11:00am 7.7 4.1 0.9 62 3.0 SSE 9 11 5 6 1024.5 - 0.0
20/10:30am 7.4 4.2 -0.5 57 3.3 SE 6 7 3 4 1024.4 - 0.0
20/10:00am 5.4 2.2 -0.8 64 2.5 SSE 6 7 3 4 1024.2 - 0.0
20/09:30am 5.6 1.6 -5.7 44 4.1 NNW 7 9 4 5 1024.0 - 0.0
20/09:00am 2.9 -0.9 -3.6 62 2.4 NNW 7 9 4 5 1023.8 1027.3 0.2
20/08:30am 0.4 -2.3 0.0 97 0.2 NW 4 6 2 3 1023.8 - 0.2
20/08:25am -0.3 -3.1 -0.6 98 0.1 NW 4 6 2 3 1023.8 - 0.2
20/08:12am -1.9 -4.5 -2.0 99 -0.1 WSW 2 4 1 2 1023.7 - 0.2
20/08:00am -3.1 -5.9 -3.2 99 -0.1 NNW 2 7 1 4 1023.7 - 0.2
20/07:30am -5.3 -9.1 -5.6 98 -0.1 NW 6 7 3 4 1023.3 - 0.2
20/07:18am -6.3 -9.8 -6.7 97 -0.1 NW 4 7 2 4 1023.2 - 0.2
20/07:00am -6.1 -8.9 -6.5 97 -0.1 CALM 0 0 0 0 1023.1 - 0.2
20/06:30am -5.4 -9.2 -5.7 98 -0.1 NNW 6 6 3 3 1023.1 - 0.2
20/06:00am -4.5 -7.4 -4.6 99 -0.2 WNW 2 6 1 3 1023.0 1026.5 0.2
20/05:30am -4.1 -7.0 -4.2 99 -0.1 NE 2 4 1 2 1022.9 - 0.2
20/05:00am -3.4 -6.6 -3.5 99 -0.1 W 4 7 2 4 1022.7 - 0.2
20/04:30am -3.0 -6.2 -3.1 99 -0.1 S 4 6 2 3 1022.9 - 0.2
20/04:00am -2.6 -5.7 -2.7 99 -0.1 E 4 6 2 3 1022.8 - 0.2
20/03:30am -2.4 -5.9 -2.5 99 -0.1 ESE 6 9 3 5 1022.5 - 0.2
20/03:00am -2.2 -5.6 -2.3 99 -0.1 S 6 7 3 4 1022.5 1026.0 0.2
20/02:30am -2.2 -5.6 -2.3 99 -0.1 ESE 6 7 3 4 1022.5 - 0.2
20/02:05am -1.7 -4.7 -1.8 99 0.0 WNW 4 6 2 3 1022.8 - 0.2
20/02:00am -1.7 -4.7 -1.8 99 0.0 NW 4 6 2 3 1022.7 - 0.2
20/01:55am -1.8 -4.8 -2.1 98 0.0 NW 4 9 2 5 1022.8 - 0.2
20/01:30am -1.0 -3.9 -1.3 98 0.1 W 4 6 2 3 1022.9 - 0.2
20/01:00am -0.9 -3.4 -1.3 97 0.1 SW 2 6 1 3 1023.0 - 0.2
20/12:30am -0.8 -4.1 -1.1 98 0.1 WSW 6 11 3 6 1023.1 - 0.2
20/12:00am -1.0 -3.9 -1.3 98 0.1 W 4 9 2 5 1023.2 1026.7 0.2
 
Date/Time
EST
Temp
°C
App
Temp
°C
Dew
Point
Rel
Hum
%
Delta-T
°C
Wind Press
QNH
hPa
Press
MSL
hPa
Rain
since 9 am
mm
Dir
 
Spd
km/h
Gust
km/h
Spd
kts
Gust
kts
19/11:30pm -1.3 -4.9 -1.9 96 0.2 WNW 7 11 4 6 1023.2 - 0.2
19/11:00pm -1.2 -4.8 -2.0 94 0.2 W 7 11 4 6 1023.2 - 0.2
19/10:30pm 0.0 -3.3 -1.0 93 0.4 W 6 9 3 5 1023.2 - 0.2
19/10:00pm 0.3 -3.1 -0.8 92 0.4 S 7 11 4 6 1023.1 - 0.2
19/09:30pm 0.4 -2.1 -1.0 90 0.6 ENE 2 4 1 2 1023.1 - 0.2
19/09:00pm 0.9 -1.8 0.0 94 0.4 S 4 7 2 4 1023.1 1026.6 0.2
19/08:30pm 1.2 -1.5 0.5 95 0.3 SE 4 9 2 5 1023.1 - 0.2
19/08:00pm 1.6 -1.5 1.5 99 0.0 S 7 9 4 5 1023.1 - 0.2
19/07:30pm 1.2 -1.4 1.1 99 0.0 S 4 6 2 3 1022.9 - 0.2
19/07:00pm 1.0 -0.8 0.9 99 0.0 CALM 0 2 0 1 1022.7 - 0.2
19/06:30pm 1.7 -1.2 1.6 99 0.0 SSW 6 7 3 4 1022.4 - 0.2
19/06:00pm 1.6 -1.3 1.5 99 0.0 S 6 7 3 4 1022.1 1025.5 0.2
19/05:30pm 2.4 -1.0 2.0 97 0.2 S 9 15 5 8 1021.8 - 0.2
19/05:00pm 3.1 0.1 1.8 91 0.6 S 7 9 4 5 1021.6 - 0.2
19/04:30pm 4.3 0.9 1.8 84 1.1 S 9 15 5 8 1021.4 - 0.2
19/04:00pm 5.6 2.4 2.9 83 1.2 S 9 11 5 6 1021.3 - 0.2
19/03:30pm 5.2 2.0 2.9 85 1.0 SSE 9 11 5 6 1021.4 - 0.2
19/03:00pm 5.9 3.1 5.0 94 0.4 SSW 9 15 5 8 1021.4 1024.8 0.2
19/02:30pm 5.7 1.5 3.7 87 0.9 S 15 20 8 11 1021.3 - 0.2
19/02:00pm 6.9 4.0 4.4 84 1.2 SSE 9 15 5 8 1021.0 - 0.2
19/01:30pm 5.5 1.9 4.9 96 0.3 S 13 20 7 11 1021.1 - 0.2
19/01:00pm 5.4 1.9 5.3 99 0.0 S 13 20 7 11 1021.3 - 0.2
19/12:53pm 5.0 1.0 4.9 99 0.0 S 15 20 8 11 1021.3 - 0.2
19/12:30pm 5.3 1.4 5.2 99 0.0 SSW 15 19 8 10 1021.5 - 0.2
19/12:00pm 4.5 0.0 4.4 99 0.0 SSW 17 22 9 12 1021.9 1025.3 0.0
19/11:30am 4.3 0.6 4.2 99 0.0 SSW 13 20 7 11 1022.0 - 0.0
19/11:00am 4.6 1.3 4.5 99 0.0 S 11 19 6 10 1022.1 - 0.0
19/10:30am 4.0 -0.2 3.9 99 0.0 SSW 15 20 8 11 1022.0 - 0.0
19/10:00am 4.4 0.7 4.3 99 0.0 S 13 19 7 10 1022.0 - 0.0
19/09:54am 4.6 1.3 4.5 99 0.0 S 11 24 6 13 1022.0 - 0.0
19/09:30am 4.4 0.3 4.3 99 0.0 S 15 22 8 12 1021.8 - 0.0
19/09:23am 4.3 -0.2 4.2 99 0.0 S 17 28 9 15 1021.8 - 0.0
19/09:00am 4.4 1.1 4.3 99 0.0 S 11 20 6 11 1021.6 1025.1 9.0
19/08:30am 3.8 0.0 3.7 99 0.0 S 13 20 7 11 1021.4 - 9.0
19/08:00am 3.6 -0.3 3.5 99 0.0 S 13 20 7 11 1021.2 - 8.8
19/07:30am 3.5 0.0 3.4 99 0.0 S 11 19 6 10 1021.0 - 8.8
19/07:00am 3.4 -0.1 3.3 99 0.0 S 11 19 6 10 1020.5 - 8.6
19/06:30am 3.3 -0.3 3.2 99 0.0 S 11 17 6 9 1020.2 - 8.6
19/06:00am 3.2 -0.8 3.1 99 0.0 S 13 19 7 10 1019.9 1023.3 8.4
19/05:41am 3.3 0.1 3.2 99 0.0 S 9 15 5 8 1019.8 - 8.4
19/05:34am 3.3 -0.3 3.2 99 0.0 S 11 17 6 9 1019.7 - 8.4
19/05:30am 3.2 -0.4 3.1 99 0.0 S 11 17 6 9 1019.7 - 8.4
19/05:00am 3.2 0.0 3.1 99 0.0 S 9 15 5 8 1019.4 - 8.4
19/04:30am 3.2 0.6 3.1 99 0.0 S 6 7 3 4 1019.4 - 8.2
19/04:00am 3.2 0.0 3.1 99 0.0 S 9 13 5 7 1019.4 - 8.2
19/03:45am 3.1 -0.1 3.0 99 0.0 S 9 15 5 8 1019.4 - 8.2
19/03:30am 3.1 -0.1 3.0 99 0.0 SSE 9 13 5 7 1019.5 - 8.2
19/03:00am 3.0 -0.2 2.9 99 0.0 S 9 15 5 8 1019.4 1022.7 8.2
19/02:58am 3.0 -0.2 2.9 99 0.0 S 9 15 5 8 1019.4 - 8.2
19/02:30am 3.2 0.0 3.1 99 0.0 SSE 9 11 5 6 1019.5 - 8.2
19/02:00am 3.1 0.3 3.0 99 0.0 SSE 7 13 4 7 1019.6 - 8.0
19/01:30am 3.2 -0.4 3.1 99 0.0 SE 11 15 6 8 1019.5 - 8.0
19/01:00am 3.2 -0.8 3.1 99 0.0 SSE 13 19 7 10 1019.5 - 7.8
19/12:53am 3.2 -0.4 3.1 99 0.0 S 11 19 6 10 1019.4 - 7.8
19/12:48am 3.1 -0.5 3.0 99 0.0 S 11 17 6 9 1019.4 - 7.8
19/12:30am 3.1 -0.1 3.0 99 0.0 SSE 9 15 5 8 1019.3 - 7.8
19/12:00am 3.1 0.3 3.0 99 0.0 SE 7 13 4 7 1019.4 1022.7 7.8
 
Date/Time
EST
Temp
°C
App
Temp
°C
Dew
Point
Rel
Hum
%
Delta-T
°C
Wind Press
QNH
hPa
Press
MSL
hPa
Rain
since 9 am
mm
Dir
 
Spd
km/h
Gust
km/h
Spd
kts
Gust
kts
18/11:32pm 3.2 -0.8 3.1 99 0.0 SSE 13 22 7 12 1019.3 - 7.8
18/11:30pm 3.2 -0.8 3.1 99 0.0 SSE 13 22 7 12 1019.3 - 7.8
18/11:16pm 3.1 -0.5 3.0 99 0.0 SSE 11 15 6 8 1019.3 - 7.8
18/11:01pm 3.1 -0.5 3.0 99 0.0 SSE 11 19 6 10 1019.3 - 7.6
18/11:00pm 3.1 -0.5 3.0 99 0.0 SSE 11 19 6 10 1019.3 - 7.6
18/10:30pm 3.1 -0.5 3.0 99 0.0 SSE 11 20 6 11 1019.3 - 7.6
18/10:00pm 3.2 -1.5 3.1 99 0.0 SSE 17 24 9 13 1019.1 - 7.6
18/09:46pm 3.2 -1.1 3.1 99 0.0 SE 15 19 8 10 1019.1 - 7.6
18/09:30pm 3.2 -1.9 3.1 99 0.0 SE 19 32 10 17 1018.9 - 7.6
18/09:10pm 3.6 -0.7 3.5 99 0.0 SE 15 20 8 11 1018.8 - 7.4
18/09:00pm 3.6 -1.0 3.5 99 0.0 SE 17 30 9 16 1018.7 1022.0 7.4
18/08:47pm 3.7 -0.9 3.6 99 0.0 SE 17 26 9 14 1018.6 - 7.2
18/08:30pm 3.8 -0.8 3.7 99 0.0 SE 17 22 9 12 1018.6 - 7.2
18/08:27pm 3.8 -1.2 3.7 99 0.0 SE 19 28 10 15 1018.6 - 7.2
18/08:14pm 3.8 -1.2 3.7 99 0.0 SE 19 28 10 15 1018.5 - 7.2
18/08:03pm 3.9 -1.6 3.8 99 0.0 SE 22 35 12 19 1018.5 - 7.2
18/08:00pm 3.9 -1.6 3.8 99 0.0 SE 22 35 12 19 1018.5 - 7.2
18/07:30pm 3.9 -2.0 3.8 99 0.0 SE 24 37 13 20 1018.0 - 7.2
18/07:28pm 3.9 -2.0 3.8 99 0.0 SE 24 39 13 21 1018.0 - 7.2
18/07:01pm 4.1 -1.4 4.0 99 0.0 SE 22 37 12 20 1017.9 - 7.2
18/07:00pm 4.1 -1.0 4.0 99 0.0 SE 20 37 11 20 1017.8 - 7.2
18/06:30pm 4.1 -0.4 4.0 99 0.0 SSE 17 24 9 13 1017.7 - 5.8
18/06:28pm 4.1 -0.4 4.0 99 0.0 SSE 17 24 9 13 1017.6 - 5.8
18/06:00pm 4.3 -0.6 4.2 99 0.0 SSE 19 30 10 16 1017.1 1020.4 5.2
18/05:30pm 4.5 0.4 4.4 99 0.0 SSE 15 22 8 12 1016.8 - 4.8
18/05:00pm 4.6 0.2 4.5 99 0.0 SSE 17 26 9 14 1016.4 - 4.8
18/04:30pm 4.8 0.8 4.7 99 0.0 SSE 15 20 8 11 1016.4 - 4.6
18/04:24pm 4.7 0.3 4.6 99 0.0 SE 17 26 9 14 1016.3 - 4.6
18/04:01pm 5.2 0.9 5.1 99 0.0 SE 17 24 9 13 1016.2 - 3.6
18/04:00pm 5.2 0.9 5.1 99 0.0 SE 17 24 9 13 1016.2 - 3.6
18/03:30pm 5.5 1.2 5.4 99 0.0 SSE 17 28 9 15 1015.9 - 3.6
18/03:00pm 5.2 0.5 5.1 99 0.0 SSE 19 33 10 18 1015.7 1019.0 3.6
18/02:30pm 5.6 2.1 5.5 99 0.0 SE 13 20 7 11 1015.6 - 2.8
18/02:00pm 5.4 1.5 5.3 99 0.0 SE 15 24 8 13 1015.5 - 2.4
18/01:30pm 5.4 1.1 5.1 98 0.1 SSE 17 28 9 15 1015.5 - 2.2
18/01:00pm 5.9 1.1 5.5 97 0.2 SSE 20 35 11 19 1015.4 - 2.0
18/12:47pm 6.1 2.0 6.0 99 0.0 SE 17 28 9 15 1015.3 - 2.0
18/12:32pm 5.8 0.6 5.7 99 0.0 SE 22 32 12 17 1015.4 - 2.0
18/12:30pm 5.6 0.7 5.3 98 0.1 SE 20 32 11 17 1015.4 - 2.0
18/12:00pm 6.6 1.6 6.5 99 0.0 SE 22 32 12 17 1015.6 1018.8 1.6
18/11:33am 6.0 0.5 5.9 99 0.0 SE 24 39 13 21 1015.7 - 1.6
18/11:30am 6.0 0.5 5.9 99 0.0 SE 24 39 13 21 1015.9 - 1.6
18/11:15am 5.6 2.1 5.5 99 0.0 SSE 13 22 7 12 1015.9 - 1.6
18/11:06am 5.4 1.9 5.3 99 0.0 SSE 13 20 7 11 1015.9 - 1.4
18/11:00am 5.5 2.0 5.4 99 0.0 SSE 13 20 7 11 1015.9 - 1.4
18/10:30am 5.1 1.1 5.0 99 0.0 SSE 15 24 8 13 1016.0 - 1.2
18/10:00am 4.7 0.3 4.6 99 0.0 S 17 26 9 14 1015.7 - 0.8
18/09:30am 4.4 -0.1 4.3 99 0.0 SSE 17 26 9 14 1015.9 - 0.8
18/09:19am 4.4 -0.1 4.3 99 0.0 S 17 22 9 12 1015.6 - 0.0
18/09:00am 4.0 -1.1 3.9 99 0.0 S 20 32 11 17 1015.5 1018.7 11.4
18/08:44am 3.7 -1.3 3.6 99 0.0 S 19 30 10 16 1015.6 - 11.2
18/08:34am 3.5 -1.5 3.4 99 0.0 S 19 30 10 16 1015.6 - 10.8
18/08:30am 3.6 -1.4 3.5 99 0.0 S 19 30 10 16 1015.5 - 10.6
18/08:00am 3.4 -1.3 3.3 99 0.0 S 17 28 9 15 1015.3 - 10.2
18/07:39am 3.4 -1.8 3.3 99 0.0 S 20 30 11 16 1014.9 - 10.0
18/07:30am 3.4 -2.2 3.3 99 0.0 S 22 32 12 17 1014.9 - 10.0
18/07:00am 3.4 -1.3 3.3 99 0.0 S 17 26 9 14 1014.6 - 10.0
18/06:58am 3.4 -1.3 3.3 99 0.0 S 17 26 9 14 1014.6 - 10.0
18/06:40am 3.4 -1.8 3.3 99 0.0 S 20 30 11 16 1014.4 - 9.8
18/06:30am 3.4 -1.8 3.3 99 0.0 S 20 39 11 21 1014.4 - 9.8
18/06:03am 3.4 -1.3 3.3 99 0.0 S 17 28 9 15 1014.2 - 9.6
18/06:00am 3.4 -1.3 3.3 99 0.0 S 17 26 9 14 1014.2 1017.3 9.6
18/05:55am 3.3 -1.8 3.2 99 0.0 S 19 28 10 15 1014.2 - 9.6
18/05:30am 3.3 -1.4 3.2 99 0.0 S 17 24 9 13 1013.9 - 9.4
18/05:10am 3.3 -1.4 3.2 99 0.0 S 17 28 9 15 1013.7 - 9.2
18/05:00am 3.2 -1.5 3.1 99 0.0 S 17 28 9 15 1013.6 - 9.2
18/04:30am 3.2 -2.1 3.1 99 0.0 S 20 33 11 18 1013.7 - 8.8
18/04:11am 3.1 -1.6 3.0 99 0.0 S 17 30 9 16 1013.6 - 8.8
18/04:00am 3.1 -2.2 3.0 99 0.0 S 20 32 11 17 1013.6 - 8.6
18/03:54am 3.0 -2.3 2.9 99 0.0 S 20 32 11 17 1013.6 - 8.6
18/03:30am 2.9 -2.8 2.8 99 0.0 S 22 39 12 21 1013.6 - 8.6
18/03:00am 2.6 -2.8 2.5 99 0.0 S 20 37 11 20 1013.7 1016.9 8.4
18/02:44am 2.4 -3.0 2.3 99 0.0 S 20 35 11 19 1013.9 - 8.4
18/02:30am 2.3 -3.1 2.2 99 0.0 S 20 30 11 16 1014.0 - 8.4
18/02:21am 2.3 -3.1 2.2 99 0.0 S 20 35 11 19 1014.3 - 8.4
18/02:00am 2.3 -3.1 2.2 99 0.0 S 20 32 11 17 1014.3 - 8.4
18/01:33am 2.2 -4.4 2.1 99 0.0 S 26 41 14 22 1014.4 - 8.4
18/01:30am 2.2 -4.4 2.1 99 0.0 S 26 43 14 23 1014.4 - 8.4
18/01:12am 2.3 -3.1 2.2 99 0.0 S 20 37 11 20 1014.4 - 8.2
18/01:00am 2.4 -3.0 2.3 99 0.0 S 20 30 11 16 1014.5 - 8.2
18/12:38am 2.5 -2.7 2.4 99 0.0 S 19 32 10 17 1014.4 - 8.2
18/12:30am 2.4 -2.8 2.3 99 0.0 S 19 32 10 17 1014.4 - 8.2
18/12:00am 2.3 -3.5 2.2 99 0.0 S 22 35 12 19 1014.4 1017.6 8.2
 
Date/Time
EST
Temp
°C
App
Temp
°C
Dew
Point
Rel
Hum
%
Delta-T
°C
Wind Press
QNH
hPa
Press
MSL
hPa
Rain
since 9 am
mm
Dir
 
Spd
km/h
Gust
km/h
Spd
kts
Gust
kts
17/11:56pm 2.2 -3.6 2.1 99 0.0 S 22 35 12 19 1014.4 - 8.2
17/11:30pm 2.2 -3.1 2.1 99 0.0 S 19 30 10 16 1014.6 - 8.2
17/11:00pm 2.3 -3.5 2.2 99 0.0 S 22 37 12 20 1014.7 - 8.2
17/10:30pm 2.4 -2.1 2.3 99 0.0 S 15 30 8 16 1014.8 - 8.2
17/10:09pm 2.4 -2.1 2.3 99 0.0 S 15 28 8 15 1014.8 - 8.2
17/10:00pm 2.4 -2.5 2.3 99 0.0 S 17 28 9 15 1014.9 - 8.2
17/09:30pm 2.3 -2.9 2.2 99 0.0 S 19 28 10 15 1014.9 - 8.0
17/09:27pm 2.3 -3.1 2.2 99 0.0 S 20 32 11 17 1014.9 - 8.0
17/09:07pm 2.3 -2.6 2.2 99 0.0 S 17 26 9 14 1014.9 - 8.0
17/09:00pm 2.3 -2.2 2.2 99 0.0 S 15 26 8 14 1015.1 1018.3 8.0
17/08:41pm 2.2 -2.7 2.1 99 0.0 S 17 28 9 15 1014.9 - 8.0
17/08:30pm 2.2 -2.7 2.1 99 0.0 S 17 26 9 14 1015.1 - 8.0
17/08:09pm 2.1 -2.8 2.0 99 0.0 S 17 30 9 16 1015.1 - 8.0
17/08:00pm 2.2 -3.1 2.1 99 0.0 S 19 28 10 15 1014.9 - 8.0
17/07:46pm 2.2 -3.1 2.1 99 0.0 S 19 28 10 15 1014.8 - 8.0
17/07:30pm 2.3 -2.6 2.2 99 0.0 S 17 24 9 13 1014.6 - 8.0
17/07:00pm 2.5 -2.3 2.4 99 0.0 S 17 28 9 15 1014.5 - 8.0
17/06:30pm 2.5 -2.7 2.4 99 0.0 SSE 19 28 10 15 1014.5 - 7.8
17/06:00pm 2.7 -1.7 2.6 99 0.0 S 15 26 8 14 1014.3 1017.4 7.6
17/05:30pm 2.9 -1.1 2.8 99 0.0 SSE 13 17 7 9 1014.3 - 7.2
17/05:00pm 3.1 -0.9 3.0 99 0.0 SSE 13 20 7 11 1014.0 - 7.0

Other Formats:

Comma delimited format used in spreadsheet applications
http://www.bom.gov.au/fwo/IDV60801/IDV60801.94905.axf

JavaScript Object Notation format (JSON) in row-major order
http://www.bom.gov.au/fwo/IDV60801/IDV60801.94905.json